sensor_id;sensor_type;location;lat;lon;timestamp;temperature;humidity
71088;SHT31;58747;50.674;4.616;2022-11-03T00:01:57;11.62;77.36
71088;SHT31;58747;50.674;4.616;2022-11-03T00:04:23;11.65;77.43
71088;SHT31;58747;50.674;4.616;2022-11-03T00:06:51;11.62;77.38
71088;SHT31;58747;50.674;4.616;2022-11-03T00:09:18;11.65;77.31
71088;SHT31;58747;50.674;4.616;2022-11-03T00:11:45;11.68;77.36
71088;SHT31;58747;50.674;4.616;2022-11-03T00:14:11;11.65;77.26
71088;SHT31;58747;50.674;4.616;2022-11-03T00:16:38;11.62;77.41
71088;SHT31;58747;50.674;4.616;2022-11-03T00:19:04;11.67;77.31
71088;SHT31;58747;50.674;4.616;2022-11-03T00:21:29;11.67;77.29
71088;SHT31;58747;50.674;4.616;2022-11-03T00:23:55;11.64;77.38
71088;SHT31;58747;50.674;4.616;2022-11-03T00:26:25;11.69;77.35
71088;SHT31;58747;50.674;4.616;2022-11-03T00:28:53;11.68;77.51
71088;SHT31;58747;50.674;4.616;2022-11-03T00:31:23;11.62;77.68
71088;SHT31;58747;50.674;4.616;2022-11-03T00:33:50;11.61;77.54
71088;SHT31;58747;50.674;4.616;2022-11-03T00:36:21;11.64;77.69
71088;SHT31;58747;50.674;4.616;2022-11-03T00:38:47;11.65;77.60
71088;SHT31;58747;50.674;4.616;2022-11-03T00:41:13;11.67;77.62
71088;SHT31;58747;50.674;4.616;2022-11-03T00:43:38;11.62;77.71
71088;SHT31;58747;50.674;4.616;2022-11-03T00:46:05;11.61;77.76
71088;SHT31;58747;50.674;4.616;2022-11-03T00:48:31;11.62;77.84
71088;SHT31;58747;50.674;4.616;2022-11-03T00:53:27;11.67;77.71
71088;SHT31;58747;50.674;4.616;2022-11-03T00:55:53;11.65;77.81
71088;SHT31;58747;50.674;4.616;2022-11-03T00:58:18;11.69;77.70
71088;SHT31;58747;50.674;4.616;2022-11-03T01:00:43;11.68;77.76
71088;SHT31;58747;50.674;4.616;2022-11-03T01:03:09;11.67;77.80
71088;SHT31;58747;50.674;4.616;2022-11-03T01:05:42;11.64;78.16
71088;SHT31;58747;50.674;4.616;2022-11-03T01:08:33;11.62;78.20
71088;SHT31;58747;50.674;4.616;2022-11-03T01:11:10;11.58;78.42
71088;SHT31;58747;50.674;4.616;2022-11-03T01:13:55;11.59;78.41
71088;SHT31;58747;50.674;4.616;2022-11-03T01:16:21;11.59;78.60
71088;SHT31;58747;50.674;4.616;2022-11-03T01:18:46;11.59;78.59
71088;SHT31;58747;50.674;4.616;2022-11-03T01:21:12;11.58;78.81
71088;SHT31;58747;50.674;4.616;2022-11-03T01:23:37;11.54;78.98
71088;SHT31;58747;50.674;4.616;2022-11-03T01:26:04;11.58;79.11
71088;SHT31;58747;50.674;4.616;2022-11-03T01:28:30;11.54;79.27
71088;SHT31;58747;50.674;4.616;2022-11-03T01:30:55;11.57;79.26
71088;SHT31;58747;50.674;4.616;2022-11-03T01:33:26;11.58;79.28
71088;SHT31;58747;50.674;4.616;2022-11-03T01:35:52;11.55;79.48
71088;SHT31;58747;50.674;4.616;2022-11-03T01:38:17;11.55;79.64
71088;SHT31;58747;50.674;4.616;2022-11-03T01:40:42;11.51;79.87
71088;SHT31;58747;50.674;4.616;2022-11-03T01:43:19;11.50;80.02
71088;SHT31;58747;50.674;4.616;2022-11-03T01:45:46;11.48;80.07
71088;SHT31;58747;50.674;4.616;2022-11-03T01:48:14;11.52;80.22
71088;SHT31;58747;50.674;4.616;2022-11-03T01:50:42;11.55;80.16
71088;SHT31;58747;50.674;4.616;2022-11-03T01:53:09;11.52;80.23
71088;SHT31;58747;50.674;4.616;2022-11-03T01:55:36;11.41;80.65
71088;SHT31;58747;50.674;4.616;2022-11-03T02:00:33;11.50;80.54
71088;SHT31;58747;50.674;4.616;2022-11-03T02:02:59;11.42;80.89
71088;SHT31;58747;50.674;4.616;2022-11-03T02:05:26;11.51;80.74
71088;SHT31;58747;50.674;4.616;2022-11-03T02:10:22;11.50;80.87
71088;SHT31;58747;50.674;4.616;2022-11-03T02:12:47;11.51;80.83
71088;SHT31;58747;50.674;4.616;2022-11-03T02:15:15;11.54;80.88
71088;SHT31;58747;50.674;4.616;2022-11-03T02:17:43;11.47;81.14
71088;SHT31;58747;50.674;4.616;2022-11-03T02:20:14;11.54;81.01
71088;SHT31;58747;50.674;4.616;2022-11-03T02:25:43;11.54;81.17
71088;SHT31;58747;50.674;4.616;2022-11-03T02:28:10;11.51;81.41
71088;SHT31;58747;50.674;4.616;2022-11-03T02:36:17;11.54;81.62
71088;SHT31;58747;50.674;4.616;2022-11-03T02:38:53;11.54;81.61
71088;SHT31;58747;50.674;4.616;2022-11-03T02:41:20;11.57;81.66
71088;SHT31;58747;50.674;4.616;2022-11-03T02:43:46;11.57;81.75
71088;SHT31;58747;50.674;4.616;2022-11-03T02:46:13;11.62;81.69
71088;SHT31;58747;50.674;4.616;2022-11-03T02:48:40;11.64;81.61
71088;SHT31;58747;50.674;4.616;2022-11-03T02:51:05;11.68;81.78
71088;SHT31;58747;50.674;4.616;2022-11-03T02:53:38;11.74;81.52
71088;SHT31;58747;50.674;4.616;2022-11-03T02:56:13;11.65;81.93
71088;SHT31;58747;50.674;4.616;2022-11-03T03:01:22;11.64;82.29
71088;SHT31;58747;50.674;4.616;2022-11-03T03:03:57;11.68;82.24
71088;SHT31;58747;50.674;4.616;2022-11-03T03:06:38;11.67;82.47
71088;SHT31;58747;50.674;4.616;2022-11-03T03:09:08;11.72;82.52
71088;SHT31;58747;50.674;4.616;2022-11-03T03:11:37;11.72;82.64
71088;SHT31;58747;50.674;4.616;2022-11-03T03:14:08;11.71;82.84
71088;SHT31;58747;50.674;4.616;2022-11-03T03:16:41;11.69;82.81
71088;SHT31;58747;50.674;4.616;2022-11-03T03:19:21;11.72;83.06
71088;SHT31;58747;50.674;4.616;2022-11-03T03:21:52;11.78;82.94
71088;SHT31;58747;50.674;4.616;2022-11-03T03:25:02;11.79;82.93
71088;SHT31;58747;50.674;4.616;2022-11-03T03:27:30;11.75;83.01
71088;SHT31;58747;50.674;4.616;2022-11-03T03:30:02;11.86;82.98
71088;SHT31;58747;50.674;4.616;2022-11-03T03:32:31;11.89;82.80
71088;SHT31;58747;50.674;4.616;2022-11-03T03:34:59;11.89;82.78
71088;SHT31;58747;50.674;4.616;2022-11-03T03:37:26;11.89;82.77
71088;SHT31;58747;50.674;4.616;2022-11-03T03:39:56;11.86;83.01
71088;SHT31;58747;50.674;4.616;2022-11-03T03:42:26;11.85;83.21
71088;SHT31;58747;50.674;4.616;2022-11-03T03:44:53;11.85;83.34
71088;SHT31;58747;50.674;4.616;2022-11-03T03:47:24;11.92;83.31
71088;SHT31;58747;50.674;4.616;2022-11-03T03:49:51;11.92;83.29
71088;SHT31;58747;50.674;4.616;2022-11-03T03:52:16;11.89;83.29
71088;SHT31;58747;50.674;4.616;2022-11-03T03:54:42;11.92;83.40
71088;SHT31;58747;50.674;4.616;2022-11-03T03:57:12;11.98;83.29
71088;SHT31;58747;50.674;4.616;2022-11-03T03:59:40;11.99;83.32
71088;SHT31;58747;50.674;4.616;2022-11-03T04:02:06;11.98;83.42
71088;SHT31;58747;50.674;4.616;2022-11-03T04:04:31;11.99;83.54
71088;SHT31;58747;50.674;4.616;2022-11-03T04:06:56;11.96;83.51
71088;SHT31;58747;50.674;4.616;2022-11-03T04:09:40;11.95;83.53
71088;SHT31;58747;50.674;4.616;2022-11-03T04:12:07;11.96;83.61
71088;SHT31;58747;50.674;4.616;2022-11-03T04:14:51;11.98;83.61
71088;SHT31;58747;50.674;4.616;2022-11-03T04:17:35;11.98;83.68
71088;SHT31;58747;50.674;4.616;2022-11-03T04:20:20;11.99;83.72
71088;SHT31;58747;50.674;4.616;2022-11-03T04:23:04;11.95;84.00
71088;SHT31;58747;50.674;4.616;2022-11-03T04:25:29;11.95;83.92
71088;SHT31;58747;50.674;4.616;2022-11-03T04:27:54;11.92;83.93
71088;SHT31;58747;50.674;4.616;2022-11-03T04:30:20;11.95;83.93
71088;SHT31;58747;50.674;4.616;2022-11-03T04:32:50;11.90;84.08
71088;SHT31;58747;50.674;4.616;2022-11-03T04:35:21;11.88;84.22
71088;SHT31;58747;50.674;4.616;2022-11-03T04:37:50;11.90;84.19
71088;SHT31;58747;50.674;4.616;2022-11-03T04:40:18;11.93;84.04
71088;SHT31;58747;50.674;4.616;2022-11-03T04:42:44;11.85;84.17
71088;SHT31;58747;50.674;4.616;2022-11-03T04:45:20;11.90;84.08
71088;SHT31;58747;50.674;4.616;2022-11-03T04:47:46;11.89;84.09
71088;SHT31;58747;50.674;4.616;2022-11-03T04:50:17;11.90;83.99
71088;SHT31;58747;50.674;4.616;2022-11-03T04:52:46;11.85;84.15
71088;SHT31;58747;50.674;4.616;2022-11-03T04:55:14;11.86;84.27
71088;SHT31;58747;50.674;4.616;2022-11-03T04:57:41;11.82;84.34
71088;SHT31;58747;50.674;4.616;2022-11-03T05:00:13;11.81;84.36
71088;SHT31;58747;50.674;4.616;2022-11-03T05:02:38;11.79;84.44
71088;SHT31;58747;50.674;4.616;2022-11-03T05:05:14;11.78;84.48
71088;SHT31;58747;50.674;4.616;2022-11-03T05:07:39;11.75;84.57
71088;SHT31;58747;50.674;4.616;2022-11-03T05:10:06;11.79;84.63
71088;SHT31;58747;50.674;4.616;2022-11-03T05:12:32;11.79;84.50
71088;SHT31;58747;50.674;4.616;2022-11-03T05:14:57;11.85;84.28
71088;SHT31;58747;50.674;4.616;2022-11-03T05:17:25;11.83;84.24
71088;SHT31;58747;50.674;4.616;2022-11-03T05:19:56;11.83;84.25
71088;SHT31;58747;50.674;4.616;2022-11-03T05:22:24;11.77;84.37
71088;SHT31;58747;50.674;4.616;2022-11-03T05:25:00;11.82;84.20
71088;SHT31;58747;50.674;4.616;2022-11-03T05:27:26;11.72;84.48
71088;SHT31;58747;50.674;4.616;2022-11-03T05:29:52;11.79;84.36
71088;SHT31;58747;50.674;4.616;2022-11-03T05:32:25;11.72;84.35
71088;SHT31;58747;50.674;4.616;2022-11-03T05:34:53;11.78;84.11
71088;SHT31;58747;50.674;4.616;2022-11-03T05:39:47;11.77;84.09
71088;SHT31;58747;50.674;4.616;2022-11-03T05:42:24;11.78;84.07
71088;SHT31;58747;50.674;4.616;2022-11-03T05:44:52;11.77;84.01
71088;SHT31;58747;50.674;4.616;2022-11-03T05:47:43;11.78;83.96
71088;SHT31;58747;50.674;4.616;2022-11-03T05:50:18;11.78;83.75
71088;SHT31;58747;50.674;4.616;2022-11-03T05:52:45;11.78;83.83
71088;SHT31;58747;50.674;4.616;2022-11-03T05:55:30;11.75;83.75
71088;SHT31;58747;50.674;4.616;2022-11-03T05:58:03;11.74;83.69
71088;SHT31;58747;50.674;4.616;2022-11-03T06:00:36;11.81;83.61
71088;SHT31;58747;50.674;4.616;2022-11-03T06:03:04;11.74;83.62
71088;SHT31;58747;50.674;4.616;2022-11-03T06:05:30;11.79;83.35
71088;SHT31;58747;50.674;4.616;2022-11-03T06:07:59;11.78;83.38
71088;SHT31;58747;50.674;4.616;2022-11-03T06:10:28;11.81;83.19
71088;SHT31;58747;50.674;4.616;2022-11-03T06:12:56;11.75;83.49
71088;SHT31;58747;50.674;4.616;2022-11-03T06:15:28;11.74;83.24
71088;SHT31;58747;50.674;4.616;2022-11-03T06:17:55;11.81;83.00
71088;SHT31;58747;50.674;4.616;2022-11-03T06:20:21;11.81;83.02
71088;SHT31;58747;50.674;4.616;2022-11-03T06:22:47;11.79;83.01
71088;SHT31;58747;50.674;4.616;2022-11-03T06:25:30;11.81;83.04
71088;SHT31;58747;50.674;4.616;2022-11-03T06:28:04;11.78;83.00
71088;SHT31;58747;50.674;4.616;2022-11-03T06:30:35;11.77;82.89
71088;SHT31;58747;50.674;4.616;2022-11-03T06:33:30;11.79;82.76
71088;SHT31;58747;50.674;4.616;2022-11-03T06:35:58;11.78;82.80
71088;SHT31;58747;50.674;4.616;2022-11-03T06:38:27;11.78;82.69
71088;SHT31;58747;50.674;4.616;2022-11-03T06:40:53;11.83;82.46
71088;SHT31;58747;50.674;4.616;2022-11-03T06:43:24;11.81;82.57
71088;SHT31;58747;50.674;4.616;2022-11-03T06:46:00;11.85;82.44
71088;SHT31;58747;50.674;4.616;2022-11-03T06:48:27;11.81;82.62
71088;SHT31;58747;50.674;4.616;2022-11-03T06:50:54;12.22;82.36
71088;SHT31;58747;50.674;4.616;2022-11-03T06:53:24;12.06;81.51
71088;SHT31;58747;50.674;4.616;2022-11-03T06:55:52;11.95;81.99
71088;SHT31;58747;50.674;4.616;2022-11-03T06:58:33;11.88;82.08
71088;SHT31;58747;50.674;4.616;2022-11-03T07:01:02;11.89;82.19
71088;SHT31;58747;50.674;4.616;2022-11-03T07:03:29;11.86;82.12
71088;SHT31;58747;50.674;4.616;2022-11-03T07:06:01;11.95;82.43
71088;SHT31;58747;50.674;4.616;2022-11-03T07:08:35;11.88;82.08
71088;SHT31;58747;50.674;4.616;2022-11-03T07:11:28;11.90;81.94
71088;SHT31;58747;50.674;4.616;2022-11-03T07:14:01;11.88;81.90
71088;SHT31;58747;50.674;4.616;2022-11-03T07:16:34;11.85;81.97
71088;SHT31;58747;50.674;4.616;2022-11-03T07:19:02;11.88;81.93
71088;SHT31;58747;50.674;4.616;2022-11-03T07:21:34;11.86;81.87
71088;SHT31;58747;50.674;4.616;2022-11-03T07:24:04;11.83;82.03
71088;SHT31;58747;50.674;4.616;2022-11-03T07:26:36;11.88;81.78
71088;SHT31;58747;50.674;4.616;2022-11-03T07:29:02;11.86;81.72
71088;SHT31;58747;50.674;4.616;2022-11-03T07:31:27;11.89;81.65
71088;SHT31;58747;50.674;4.616;2022-11-03T07:33:57;11.93;81.54
71088;SHT31;58747;50.674;4.616;2022-11-03T07:36:24;11.92;81.46
71088;SHT31;58747;50.674;4.616;2022-11-03T07:38:52;11.95;81.30
71088;SHT31;58747;50.674;4.616;2022-11-03T07:41:21;11.95;81.29
71088;SHT31;58747;50.674;4.616;2022-11-03T07:43:54;11.93;81.39
71088;SHT31;58747;50.674;4.616;2022-11-03T07:46:21;11.89;81.30
71088;SHT31;58747;50.674;4.616;2022-11-03T07:48:57;11.93;81.21
71088;SHT31;58747;50.674;4.616;2022-11-03T07:51:26;11.98;81.05
71088;SHT31;58747;50.674;4.616;2022-11-03T07:56:36;12.02;80.88
71088;SHT31;58747;50.674;4.616;2022-11-03T08:01:42;12.06;80.61
71088;SHT31;58747;50.674;4.616;2022-11-03T08:04:20;12.09;80.43
71088;SHT31;58747;50.674;4.616;2022-11-03T08:06:47;12.12;80.42
71088;SHT31;58747;50.674;4.616;2022-11-03T08:09:12;12.12;80.44
71088;SHT31;58747;50.674;4.616;2022-11-03T08:11:38;12.12;80.63
71088;SHT31;58747;50.674;4.616;2022-11-03T08:14:03;12.16;80.42
71088;SHT31;58747;50.674;4.616;2022-11-03T08:16:29;12.12;80.48
71088;SHT31;58747;50.674;4.616;2022-11-03T08:18:54;12.16;80.36
71088;SHT31;58747;50.674;4.616;2022-11-03T08:21:19;12.17;80.29
71088;SHT31;58747;50.674;4.616;2022-11-03T08:23:45;12.26;79.90
71088;SHT31;58747;50.674;4.616;2022-11-03T08:26:10;12.27;79.70
71088;SHT31;58747;50.674;4.616;2022-11-03T08:28:36;12.22;79.98
71088;SHT31;58747;50.674;4.616;2022-11-03T08:31:01;12.22;79.91
71088;SHT31;58747;50.674;4.616;2022-11-03T08:33:33;12.22;80.08
71088;SHT31;58747;50.674;4.616;2022-11-03T08:35:59;12.23;80.02
71088;SHT31;58747;50.674;4.616;2022-11-03T08:38:24;12.29;79.85
71088;SHT31;58747;50.674;4.616;2022-11-03T08:40:50;12.26;79.61
71088;SHT31;58747;50.674;4.616;2022-11-03T08:43:15;12.41;80.62
71088;SHT31;58747;50.674;4.616;2022-11-03T08:45:41;12.46;79.29
71088;SHT31;58747;50.674;4.616;2022-11-03T08:48:06;12.38;79.37
71088;SHT31;58747;50.674;4.616;2022-11-03T08:50:31;12.34;79.53
71088;SHT31;58747;50.674;4.616;2022-11-03T08:52:57;12.41;79.31
71088;SHT31;58747;50.674;4.616;2022-11-03T08:55:22;12.34;79.64
71088;SHT31;58747;50.674;4.616;2022-11-03T08:57:48;12.32;79.66
71088;SHT31;58747;50.674;4.616;2022-11-03T09:00:13;12.32;79.50
71088;SHT31;58747;50.674;4.616;2022-11-03T09:02:41;12.61;79.06
71088;SHT31;58747;50.674;4.616;2022-11-03T09:05:07;12.60;78.58
71088;SHT31;58747;50.674;4.616;2022-11-03T09:07:32;12.53;78.79
71088;SHT31;58747;50.674;4.616;2022-11-03T09:09:58;12.46;78.95
71088;SHT31;58747;50.674;4.616;2022-11-03T09:12:23;12.44;78.86
71088;SHT31;58747;50.674;4.616;2022-11-03T09:14:48;12.41;79.12
71088;SHT31;58747;50.674;4.616;2022-11-03T09:17:14;12.41;79.10
71088;SHT31;58747;50.674;4.616;2022-11-03T09:19:39;12.41;79.02
71088;SHT31;58747;50.674;4.616;2022-11-03T09:22:04;12.40;79.10
71088;SHT31;58747;50.674;4.616;2022-11-03T09:24:30;12.41;79.01
71088;SHT31;58747;50.674;4.616;2022-11-03T09:26:55;12.41;79.19
71088;SHT31;58747;50.674;4.616;2022-11-03T09:29:21;12.40;79.10
71088;SHT31;58747;50.674;4.616;2022-11-03T09:31:46;12.48;78.74
71088;SHT31;58747;50.674;4.616;2022-11-03T09:34:11;12.51;78.88
71088;SHT31;58747;50.674;4.616;2022-11-03T09:36:38;12.58;78.53
71088;SHT31;58747;50.674;4.616;2022-11-03T09:39:03;12.58;78.62
71088;SHT31;58747;50.674;4.616;2022-11-03T09:41:29;12.68;78.02
71088;SHT31;58747;50.674;4.616;2022-11-03T09:43:56;12.78;77.80
71088;SHT31;58747;50.674;4.616;2022-11-03T09:46:22;12.95;77.49
71088;SHT31;58747;50.674;4.616;2022-11-03T09:48:48;12.98;76.99
71088;SHT31;58747;50.674;4.616;2022-11-03T09:51:18;13.05;76.55
71088;SHT31;58747;50.674;4.616;2022-11-03T09:53:43;13.13;76.03
71088;SHT31;58747;50.674;4.616;2022-11-03T09:56:09;13.08;76.24
71088;SHT31;58747;50.674;4.616;2022-11-03T09:58:35;13.08;76.25
71088;SHT31;58747;50.674;4.616;2022-11-03T10:01:00;13.18;75.82
71088;SHT31;58747;50.674;4.616;2022-11-03T10:03:26;13.33;75.74
71088;SHT31;58747;50.674;4.616;2022-11-03T10:05:52;13.59;74.56
71088;SHT31;58747;50.674;4.616;2022-11-03T10:08:26;13.84;73.48
71088;SHT31;58747;50.674;4.616;2022-11-03T10:10:53;14.04;73.34
71088;SHT31;58747;50.674;4.616;2022-11-03T10:13:33;14.11;72.32
71088;SHT31;58747;50.674;4.616;2022-11-03T10:16:01;14.20;72.08
71088;SHT31;58747;50.674;4.616;2022-11-03T10:18:27;14.21;71.73
71088;SHT31;58747;50.674;4.616;2022-11-03T10:20:54;14.25;71.59
71088;SHT31;58747;50.674;4.616;2022-11-03T10:23:19;14.22;71.37
71088;SHT31;58747;50.674;4.616;2022-11-03T10:25:45;14.15;71.56
71088;SHT31;58747;50.674;4.616;2022-11-03T10:28:16;14.08;72.13
71088;SHT31;58747;50.674;4.616;2022-11-03T10:35:58;14.04;72.17
71088;SHT31;58747;50.674;4.616;2022-11-03T10:38:32;14.02;72.26
71088;SHT31;58747;50.674;4.616;2022-11-03T10:41:21;14.04;72.25
71088;SHT31;58747;50.674;4.616;2022-11-03T10:46:24;14.00;72.16
71088;SHT31;58747;50.674;4.616;2022-11-03T10:51:34;14.02;72.21
71088;SHT31;58747;50.674;4.616;2022-11-03T10:54:01;14.00;72.16
71088;SHT31;58747;50.674;4.616;2022-11-03T10:56:27;14.05;72.11
71088;SHT31;58747;50.674;4.616;2022-11-03T10:58:53;14.12;71.95
71088;SHT31;58747;50.674;4.616;2022-11-03T11:01:19;14.11;71.89
71088;SHT31;58747;50.674;4.616;2022-11-03T11:03:44;14.24;74.43
71088;SHT31;58747;50.674;4.616;2022-11-03T11:06:27;14.28;70.96
71088;SHT31;58747;50.674;4.616;2022-11-03T11:08:58;14.17;71.44
71088;SHT31;58747;50.674;4.616;2022-11-03T11:11:24;14.22;71.40
71088;SHT31;58747;50.674;4.616;2022-11-03T11:16:56;14.45;70.27
71088;SHT31;58747;50.674;4.616;2022-11-03T11:19:23;14.35;70.70
71088;SHT31;58747;50.674;4.616;2022-11-03T11:21:57;14.36;70.41
71088;SHT31;58747;50.674;4.616;2022-11-03T11:24:59;14.39;70.43
71088;SHT31;58747;50.674;4.616;2022-11-03T11:29:59;14.38;70.34
71088;SHT31;58747;50.674;4.616;2022-11-03T11:37:40;14.70;69.58
71088;SHT31;58747;50.674;4.616;2022-11-03T11:48:29;14.79;69.58
71088;SHT31;58747;50.674;4.616;2022-11-03T11:50:59;14.76;69.20
71088;SHT31;58747;50.674;4.616;2022-11-03T11:53:25;14.83;68.92
71088;SHT31;58747;50.674;4.616;2022-11-03T11:55:59;14.79;69.09
71088;SHT31;58747;50.674;4.616;2022-11-03T11:58:49;14.87;68.58
71088;SHT31;58747;50.674;4.616;2022-11-03T12:01:33;14.89;68.10
71088;SHT31;58747;50.674;4.616;2022-11-03T12:04:07;14.96;68.66
71088;SHT31;58747;50.674;4.616;2022-11-03T12:06:39;14.96;68.55
71088;SHT31;58747;50.674;4.616;2022-11-03T12:09:07;14.96;67.71
71088;SHT31;58747;50.674;4.616;2022-11-03T12:11:44;14.96;67.66
71088;SHT31;58747;50.674;4.616;2022-11-03T12:16:58;15.11;67.02
71088;SHT31;58747;50.674;4.616;2022-11-03T12:19:42;15.06;67.20
71088;SHT31;58747;50.674;4.616;2022-11-03T12:24:53;14.89;67.87
71088;SHT31;58747;50.674;4.616;2022-11-03T12:32:16;14.83;68.15
71088;SHT31;58747;50.674;4.616;2022-11-03T12:34:41;14.75;68.45
71088;SHT31;58747;50.674;4.616;2022-11-03T12:37:07;14.69;69.20
71088;SHT31;58747;50.674;4.616;2022-11-03T12:39:33;14.60;70.03
71088;SHT31;58747;50.674;4.616;2022-11-03T12:41:59;14.43;71.18
71088;SHT31;58747;50.674;4.616;2022-11-03T12:44:24;14.22;73.56
71088;SHT31;58747;50.674;4.616;2022-11-03T12:46:50;13.94;75.97
71088;SHT31;58747;50.674;4.616;2022-11-03T12:49:15;13.67;77.36
71088;SHT31;58747;50.674;4.616;2022-11-03T12:51:41;13.60;76.81
71088;SHT31;58747;50.674;4.616;2022-11-03T12:54:06;13.44;79.26
71088;SHT31;58747;50.674;4.616;2022-11-03T12:56:31;13.35;79.55
71088;SHT31;58747;50.674;4.616;2022-11-03T12:58:56;13.23;80.43
71088;SHT31;58747;50.674;4.616;2022-11-03T13:01:22;13.13;81.83
71088;SHT31;58747;50.674;4.616;2022-11-03T13:03:47;12.95;82.21
71088;SHT31;58747;50.674;4.616;2022-11-03T13:06:13;12.85;83.45
71088;SHT31;58747;50.674;4.616;2022-11-03T13:08:39;12.80;83.11
71088;SHT31;58747;50.674;4.616;2022-11-03T13:11:05;12.65;85.18
71088;SHT31;58747;50.674;4.616;2022-11-03T13:13:53;12.55;86.86
71088;SHT31;58747;50.674;4.616;2022-11-03T13:16:19;12.47;87.03
71088;SHT31;58747;50.674;4.616;2022-11-03T13:18:45;12.47;86.51
71088;SHT31;58747;50.674;4.616;2022-11-03T13:21:10;12.41;87.87
71088;SHT31;58747;50.674;4.616;2022-11-03T13:23:36;12.34;87.55
71088;SHT31;58747;50.674;4.616;2022-11-03T13:26:01;12.27;87.87
71088;SHT31;58747;50.674;4.616;2022-11-03T13:28:26;12.20;88.31
71088;SHT31;58747;50.674;4.616;2022-11-03T13:30:51;12.12;88.10
71088;SHT31;58747;50.674;4.616;2022-11-03T13:33:17;12.09;88.68
71088;SHT31;58747;50.674;4.616;2022-11-03T13:35:42;12.09;89.55
71088;SHT31;58747;50.674;4.616;2022-11-03T13:38:07;12.13;89.82
71088;SHT31;58747;50.674;4.616;2022-11-03T13:40:33;12.16;89.14
71088;SHT31;58747;50.674;4.616;2022-11-03T13:42:58;12.20;88.93
71088;SHT31;58747;50.674;4.616;2022-11-03T13:45:23;12.26;89.43
71088;SHT31;58747;50.674;4.616;2022-11-03T13:47:49;12.32;88.46
71088;SHT31;58747;50.674;4.616;2022-11-03T13:50:14;12.30;88.51
71088;SHT31;58747;50.674;4.616;2022-11-03T13:52:39;12.36;88.18
71088;SHT31;58747;50.674;4.616;2022-11-03T13:55:05;12.33;88.33
71088;SHT31;58747;50.674;4.616;2022-11-03T13:57:30;12.34;88.85
71088;SHT31;58747;50.674;4.616;2022-11-03T13:59:56;12.43;88.21
71088;SHT31;58747;50.674;4.616;2022-11-03T14:02:22;12.47;86.65
71088;SHT31;58747;50.674;4.616;2022-11-03T14:04:47;12.50;86.39
71088;SHT31;58747;50.674;4.616;2022-11-03T14:07:13;12.53;87.18
71088;SHT31;58747;50.674;4.616;2022-11-03T14:09:38;12.55;86.98
71088;SHT31;58747;50.674;4.616;2022-11-03T14:12:03;12.54;86.77
71088;SHT31;58747;50.674;4.616;2022-11-03T14:14:47;12.55;86.82
71088;SHT31;58747;50.674;4.616;2022-11-03T14:17:12;12.48;86.37
71088;SHT31;58747;50.674;4.616;2022-11-03T14:19:38;12.41;87.69
71088;SHT31;58747;50.674;4.616;2022-11-03T14:22:03;12.38;87.15
71088;SHT31;58747;50.674;4.616;2022-11-03T14:24:28;12.36;87.97
71088;SHT31;58747;50.674;4.616;2022-11-03T14:26:54;12.34;87.35
71088;SHT31;58747;50.674;4.616;2022-11-03T14:29:19;12.33;87.35
71088;SHT31;58747;50.674;4.616;2022-11-03T14:31:45;12.38;87.02
71088;SHT31;58747;50.674;4.616;2022-11-03T14:34:10;12.44;87.18
71088;SHT31;58747;50.674;4.616;2022-11-03T14:36:35;12.44;87.00
71088;SHT31;58747;50.674;4.616;2022-11-03T14:39:01;12.44;87.01
71088;SHT31;58747;50.674;4.616;2022-11-03T14:41:27;12.50;86.79
71088;SHT31;58747;50.674;4.616;2022-11-03T14:44:10;12.61;87.11
71088;SHT31;58747;50.674;4.616;2022-11-03T14:46:36;12.60;86.05
71088;SHT31;58747;50.674;4.616;2022-11-03T14:49:01;12.57;86.11
71088;SHT31;58747;50.674;4.616;2022-11-03T14:51:30;12.51;86.31
71088;SHT31;58747;50.674;4.616;2022-11-03T14:53:55;12.47;86.55
71088;SHT31;58747;50.674;4.616;2022-11-03T14:56:22;12.65;86.38
71088;SHT31;58747;50.674;4.616;2022-11-03T14:58:47;12.55;86.27
71088;SHT31;58747;50.674;4.616;2022-11-03T15:01:14;12.54;86.82
71088;SHT31;58747;50.674;4.616;2022-11-03T15:03:40;12.46;86.90
71088;SHT31;58747;50.674;4.616;2022-11-03T15:06:05;12.55;87.12
71088;SHT31;58747;50.674;4.616;2022-11-03T15:08:32;12.64;86.42
71088;SHT31;58747;50.674;4.616;2022-11-03T15:10:57;12.68;85.99
71088;SHT31;58747;50.674;4.616;2022-11-03T15:13:23;12.54;86.47
71088;SHT31;58747;50.674;4.616;2022-11-03T15:15:48;12.41;87.06
71088;SHT31;58747;50.674;4.616;2022-11-03T15:18:13;12.36;87.97
71088;SHT31;58747;50.674;4.616;2022-11-03T15:20:39;12.26;87.80
71088;SHT31;58747;50.674;4.616;2022-11-03T15:23:05;12.20;87.91
71088;SHT31;58747;50.674;4.616;2022-11-03T15:25:31;12.13;89.15
71088;SHT31;58747;50.674;4.616;2022-11-03T15:27:56;12.10;89.14
71088;SHT31;58747;50.674;4.616;2022-11-03T15:30:22;12.05;89.51
71088;SHT31;58747;50.674;4.616;2022-11-03T15:32:48;12.02;89.97
71088;SHT31;58747;50.674;4.616;2022-11-03T15:35:13;11.88;90.79
71088;SHT31;58747;50.674;4.616;2022-11-03T15:37:39;11.86;91.43
71088;SHT31;58747;50.674;4.616;2022-11-03T15:40:07;11.79;91.89
71088;SHT31;58747;50.674;4.616;2022-11-03T15:42:32;11.79;92.18
71088;SHT31;58747;50.674;4.616;2022-11-03T15:44:57;11.71;92.39
71088;SHT31;58747;50.674;4.616;2022-11-03T15:47:23;11.67;93.17
71088;SHT31;58747;50.674;4.616;2022-11-03T15:49:48;11.62;93.79
71088;SHT31;58747;50.674;4.616;2022-11-03T15:52:13;11.62;93.97
71088;SHT31;58747;50.674;4.616;2022-11-03T15:54:39;11.62;94.04
71088;SHT31;58747;50.674;4.616;2022-11-03T15:57:05;11.59;93.91
71088;SHT31;58747;50.674;4.616;2022-11-03T15:59:30;11.61;94.24
71088;SHT31;58747;50.674;4.616;2022-11-03T16:01:56;11.58;94.21
71088;SHT31;58747;50.674;4.616;2022-11-03T16:04:21;11.54;94.30
71088;SHT31;58747;50.674;4.616;2022-11-03T16:06:46;11.55;94.92
71088;SHT31;58747;50.674;4.616;2022-11-03T16:09:12;11.52;94.92
71088;SHT31;58747;50.674;4.616;2022-11-03T16:11:37;11.45;95.34
71088;SHT31;58747;50.674;4.616;2022-11-03T16:14:02;11.47;95.17
71088;SHT31;58747;50.674;4.616;2022-11-03T16:16:28;11.45;95.07
71088;SHT31;58747;50.674;4.616;2022-11-03T16:18:53;11.45;95.13
71088;SHT31;58747;50.674;4.616;2022-11-03T16:21:19;11.44;95.28
71088;SHT31;58747;50.674;4.616;2022-11-03T16:23:44;11.50;95.29
71088;SHT31;58747;50.674;4.616;2022-11-03T16:26:09;11.44;95.03
71088;SHT31;58747;50.674;4.616;2022-11-03T16:28:35;11.44;95.48
71088;SHT31;58747;50.674;4.616;2022-11-03T16:31:00;11.47;94.77
71088;SHT31;58747;50.674;4.616;2022-11-03T16:33:25;11.45;95.29
71088;SHT31;58747;50.674;4.616;2022-11-03T16:35:51;11.45;95.39
71088;SHT31;58747;50.674;4.616;2022-11-03T16:38:16;11.42;95.57
71088;SHT31;58747;50.674;4.616;2022-11-03T16:40:42;11.48;95.10
71088;SHT31;58747;50.674;4.616;2022-11-03T16:43:07;11.58;94.42
71088;SHT31;58747;50.674;4.616;2022-11-03T16:45:32;11.57;94.02